Terminal Aerodrome Forecast
Issued by NWS Grand Forks, ND

Home | Current Version | Previous Version | Text Only | Print | Product List | Glossary Off
Versions: 1 2 3 4 5 6 7 8 9 10 11 12 13 14 15 16 17 18

478
FTUS43 KFGF 212320
TAFGFK
TAF
KGFK 212320Z 2200/2224 04008KT P6SM SCT100 BKN250
     FM220900 01006KT P6SM SCT200
     FM221500 03014KT P6SM BKN250=

USA.gov is the U.S. government's official web portal to all federal, state and local government web resources and services.